createdAt,value
2023-02-28T00:01:43.901Z,68.0
2023-02-28T00:11:12.086Z,69.0
2023-02-28T00:20:41.078Z,68.0
2023-02-28T00:29:10.056Z,66.0
2023-02-28T00:38:11.509Z,66.0
2023-02-28T00:46:02.786Z,66.0
2023-02-28T01:03:54.391Z,65.0
2023-02-28T01:12:17.213Z,65.0
2023-02-28T01:20:13.966Z,65.0
2023-02-28T01:35:01.435Z,65.0
2023-02-28T01:50:46.744Z,65.0
2023-02-28T01:57:13.114Z,64.0
2023-02-28T02:08:43.409Z,65.0
2023-02-28T02:22:43.556Z,64.0
2023-02-28T02:28:00.786Z,65.0
2023-02-28T02:40:15.415Z,64.0
2023-02-28T02:48:17.777Z,64.0
2023-02-28T02:57:09.868Z,64.0
2023-02-28T03:05:10.769Z,64.0
2023-02-28T03:17:55.901Z,64.0
2023-02-28T03:25:32.194Z,65.0
2023-02-28T03:35:49.523Z,64.0
2023-02-28T03:43:00.458Z,64.0
2023-02-28T03:53:38.718Z,64.0
2023-02-28T04:06:13.026Z,64.0
2023-02-28T04:14:31.044Z,64.0
2023-02-28T04:20:14.597Z,64.0
2023-02-28T04:30:08.674Z,64.0
2023-02-28T04:35:36.853Z,65.0
2023-02-28T04:53:45.576Z,70.0
2023-02-28T04:59:24.919Z,69.0
2023-02-28T05:13:24.943Z,72.0
2023-02-28T05:27:25.105Z,73.0
2023-02-28T05:41:25.237Z,76.0
2023-02-28T08:31:50.389Z,51.0
2023-02-28T08:41:22.158Z,51.0
2023-02-28T08:46:05.610Z,51.0
2023-02-28T08:51:31.180Z,50.0
2023-02-28T09:06:34.000Z,50.0
2023-02-28T09:21:31.767Z,50.0
2023-02-28T09:26:25.342Z,50.0
2023-02-28T09:41:25.382Z,48.0
2023-02-28T09:56:25.395Z,48.0
2023-02-28T10:02:02.804Z,46.0
2023-02-28T10:16:28.698Z,47.0
2023-02-28T10:31:28.656Z,47.0
2023-02-28T10:41:23.775Z,46.0
2023-02-28T10:56:23.752Z,46.0
2023-02-28T11:05:17.610Z,47.0
2023-02-28T11:22:48.140Z,45.0
2023-02-28T11:33:39.822Z,44.0
2023-02-28T11:38:51.750Z,44.0
2023-02-28T11:46:39.478Z,44.0
2023-02-28T11:55:48.334Z,44.0
2023-02-28T12:04:54.773Z,45.0
2023-02-28T12:19:54.763Z,44.0
2023-02-28T12:26:23.724Z,44.0
2023-02-28T12:33:46.823Z,42.0
2023-02-28T12:42:59.059Z,43.0
2023-02-28T13:05:41.705Z,40.0
2023-02-28T13:15:56.779Z,42.0
2023-02-28T13:26:18.620Z,42.0
2023-02-28T13:42:27.086Z,42.0
2023-02-28T13:52:02.758Z,41.0
2023-02-28T14:13:30.315Z,43.0
2023-02-28T14:28:30.492Z,43.0
2023-02-28T14:43:30.490Z,44.0
2023-02-28T14:49:17.468Z,45.0
2023-02-28T15:01:54.359Z,44.0
2023-02-28T15:16:54.629Z,43.0
2023-02-28T15:26:38.697Z,44.0
2023-02-28T15:43:26.677Z,43.0
2023-02-28T15:59:38.286Z,45.0
2023-02-28T16:13:56.616Z,48.0
2023-02-28T16:24:32.229Z,50.0
2023-02-28T16:36:59.342Z,52.0
2023-02-28T16:50:52.504Z,55.0
2023-02-28T17:07:24.739Z,60.0
2023-02-28T17:11:57.193Z,60.0
2023-02-28T17:25:11.721Z,64.0
2023-02-28T17:34:56.188Z,66.0
2023-02-28T17:46:28.122Z,69.0
2023-02-28T17:58:30.337Z,69.0
2023-02-28T18:09:29.824Z,71.0
2023-02-28T18:34:31.951Z,75.0
2023-02-28T18:50:24.696Z,77.0
2023-02-28T19:00:29.010Z,77.0
2023-02-28T19:22:58.092Z,75.0
2023-02-28T19:31:23.484Z,70.0
2023-02-28T19:41:39.791Z,66.0
2023-02-28T19:51:39.700Z,64.0
2023-02-28T20:01:01.339Z,64.0
2023-02-28T20:15:51.999Z,66.0
2023-02-28T20:29:33.701Z,69.0
2023-02-28T20:45:26.003Z,68.0
2023-02-28T21:08:46.804Z,66.0
2023-02-28T21:15:45.945Z,67.0
2023-02-28T21:30:38.757Z,71.0
2023-02-28T21:45:20.194Z,75.0
2023-02-28T21:51:15.419Z,76.0
2023-02-28T22:02:09.350Z,78.0
2023-02-28T22:17:44.263Z,81.0
2023-02-28T22:23:12.202Z,80.0
2023-02-28T22:28:35.842Z,78.0
2023-02-28T22:33:51.404Z,76.0
2023-02-28T22:47:51.428Z,77.0
2023-02-28T22:53:03.101Z,77.0
2023-02-28T23:00:04.149Z,78.0
2023-02-28T23:11:44.507Z,79.0
2023-02-28T23:29:41.431Z,80.0
2023-02-28T23:42:42.240Z,82.0
2023-02-28T23:57:23.929Z,83.0
